createdAt,value
2019-01-12T07:15:38.557Z,10.10
2019-01-12T07:18:12.349Z,11.00
2019-01-12T07:20:46.004Z,10.10
2019-01-12T07:23:19.732Z,10.40
2019-01-12T07:25:53.484Z,10.73
2019-01-12T07:28:27.155Z,10.80
2019-01-12T07:31:00.923Z,10.43
2019-01-12T07:33:34.653Z,9.37
2019-01-12T07:36:08.397Z,9.90
2019-01-12T07:38:42.057Z,9.30
2019-01-12T07:41:15.823Z,10.67
2019-01-12T07:43:49.738Z,9.60
2019-01-12T07:46:23.468Z,9.53
2019-01-12T07:48:57.280Z,10.43
2019-01-12T07:51:31.849Z,9.97
2019-01-12T07:54:06.372Z,9.57
2019-01-12T07:56:40.024Z,9.47
2019-01-12T07:59:13.745Z,10.13
2019-01-12T08:01:47.455Z,8.63
2019-01-12T08:04:21.128Z,10.07
2019-01-12T08:06:54.864Z,9.60
2019-01-12T08:09:28.476Z,9.93
2019-01-12T08:12:02.060Z,9.00
2019-01-12T08:14:35.721Z,8.80
2019-01-12T08:17:10.195Z,8.10
2019-01-12T08:19:43.959Z,8.87
2019-01-12T08:22:17.600Z,10.17
2019-01-12T08:24:51.172Z,8.77
2019-01-12T08:27:24.828Z,8.87
2019-01-12T08:29:58.454Z,9.57
2019-01-12T08:32:32.195Z,8.90
2019-01-12T08:35:05.920Z,8.10
2019-01-12T08:37:39.672Z,8.47
2019-01-12T08:40:13.561Z,8.97
2019-01-12T08:42:47.288Z,8.50
2019-01-12T08:45:20.955Z,8.63
2019-01-12T08:47:54.744Z,9.03
2019-01-12T08:50:28.476Z,8.20
2019-01-12T08:53:02.194Z,9.53
2019-01-12T08:55:35.868Z,8.00
2019-01-12T08:58:09.612Z,8.47
2019-01-12T09:00:43.255Z,9.10
2019-01-12T09:03:17.016Z,7.80
2019-01-12T09:05:50.632Z,9.00
2019-01-12T09:08:24.373Z,8.40
2019-01-12T09:10:58.625Z,8.93
2019-01-12T09:13:33.152Z,9.60
2019-01-12T09:16:06.831Z,8.67
2019-01-12T09:18:40.548Z,8.20
2019-01-12T09:21:14.104Z,8.60
2019-01-12T09:23:48.520Z,8.57
2019-01-12T09:26:22.292Z,9.53
2019-01-12T09:28:55.970Z,8.73
2019-01-12T09:31:29.745Z,8.93
2019-01-12T09:34:04.245Z,8.93
2019-01-12T09:36:38.727Z,9.63
2019-01-12T09:39:12.442Z,8.67
2019-01-12T09:41:47.037Z,9.03
2019-01-12T09:44:21.340Z,8.83
2019-01-12T09:46:55.033Z,8.57
2019-01-12T09:49:28.654Z,7.57
2019-01-12T09:52:03.161Z,7.17
2019-01-12T09:54:37.012Z,8.33
2019-01-12T09:57:10.768Z,8.27
2019-01-12T09:59:44.730Z,8.87
2019-01-12T10:02:18.420Z,8.43
2019-01-12T10:04:52.132Z,8.13
2019-01-12T10:07:25.998Z,7.77
2019-01-12T10:09:59.679Z,7.67
2019-01-12T10:12:33.405Z,8.03
2019-01-12T10:15:07.028Z,8.10
2019-01-12T10:17:41.533Z,8.13
2019-01-12T10:20:15.285Z,8.10
2019-01-12T10:22:48.996Z,7.87
2019-01-12T10:25:22.833Z,8.40
2019-01-12T10:27:56.592Z,9.10
2019-01-12T10:30:30.272Z,8.03
2019-01-12T10:33:03.975Z,8.17
2019-01-12T10:35:37.689Z,9.17
2019-01-12T10:38:11.416Z,8.80
2019-01-12T10:40:44.984Z,9.27
2019-01-12T10:43:18.688Z,9.47
2019-01-12T10:45:53.185Z,12.47
2019-01-12T10:48:26.868Z,9.80
2019-01-12T10:51:01.374Z,8.30
2019-01-12T10:53:35.897Z,7.57
2019-01-12T10:56:09.649Z,9.17
2019-01-12T10:58:43.297Z,8.37
2019-01-12T11:01:17.030Z,7.97
2019-01-12T11:03:50.733Z,8.10
2019-01-12T11:06:24.508Z,7.70
2019-01-12T11:08:58.108Z,6.90
2019-01-12T11:11:31.942Z,5.17
2019-01-12T11:14:05.724Z,4.87
2019-01-12T11:16:39.408Z,5.90
2019-01-12T11:19:13.108Z,5.00
2019-01-12T11:21:46.871Z,5.10
2019-01-12T11:24:20.647Z,4.70
2019-01-12T11:26:54.353Z,5.77
2019-01-12T11:29:28.064Z,5.27
2019-01-12T11:32:02.792Z,4.93
2019-01-12T11:34:36.506Z,4.73
2019-01-12T11:37:10.211Z,4.93
2019-01-12T11:39:43.788Z,3.90
2019-01-12T11:42:17.568Z,5.80
2019-01-12T11:44:51.175Z,4.43
2019-01-12T11:47:24.772Z,6.20
2019-01-12T11:49:58.516Z,5.60
2019-01-12T11:52:32.209Z,6.03
2019-01-12T11:55:05.961Z,6.97
2019-01-12T11:57:39.654Z,6.07
2019-01-12T12:00:24.800Z,6.37
2019-01-12T12:02:58.505Z,5.87
2019-01-12T12:05:33.012Z,6.07
2019-01-12T12:08:06.668Z,6.17
2019-01-12T12:10:40.382Z,6.53
2019-01-12T12:13:14.281Z,6.87
2019-01-12T12:15:48.749Z,6.80
2019-01-12T12:18:22.419Z,6.27
2019-01-12T12:20:56.200Z,7.23
2019-01-12T12:23:30.008Z,6.10
2019-01-12T12:26:04.518Z,7.23
2019-01-12T12:28:38.160Z,6.23
2019-01-12T12:31:11.756Z,7.13
2019-01-12T12:33:45.488Z,7.07
2019-01-12T12:36:19.238Z,7.20
2019-01-12T12:38:53.804Z,8.13
2019-01-12T12:41:27.496Z,7.63
2019-01-12T12:44:01.285Z,8.33
2019-01-12T12:46:34.951Z,8.43
2019-01-12T12:49:08.824Z,8.33
2019-01-12T12:51:43.288Z,9.17
2019-01-12T12:54:17.008Z,8.60
2019-01-12T12:56:50.645Z,8.90
2019-01-12T12:59:25.161Z,9.73
2019-01-12T13:01:58.900Z,9.57
2019-01-12T13:04:32.584Z,8.33
2019-01-12T13:07:06.368Z,9.33
2019-01-12T13:09:39.921Z,10.47
2019-01-12T13:12:13.769Z,9.60
2019-01-12T13:14:47.385Z,11.13
2019-01-12T13:17:21.152Z,9.77
2019-01-12T13:19:55.649Z,9.97
2019-01-12T13:22:29.370Z,10.63
2019-01-12T13:25:03.140Z,8.93
2019-01-12T13:27:39.956Z,10.30
2019-01-12T13:30:14.943Z,9.87
2019-01-12T13:32:49.433Z,10.53
2019-01-12T13:35:23.168Z,10.00
2019-01-12T13:37:57.776Z,8.97
2019-01-12T13:40:31.494Z,8.83
2019-01-12T13:43:05.108Z,9.03
2019-01-12T13:45:38.748Z,10.40
2019-01-12T13:48:13.216Z,10.20
2019-01-12T13:50:46.928Z,10.90
2019-01-12T13:53:20.538Z,10.77
2019-01-12T13:55:54.263Z,11.50
2019-01-12T13:58:28.840Z,12.40
2019-01-12T14:01:02.605Z,12.73
2019-01-12T14:03:36.412Z,13.90
2019-01-12T14:06:10.055Z,10.43
2019-01-12T14:08:43.913Z,10.70
2019-01-12T14:11:17.608Z,9.80
2019-01-12T14:13:51.477Z,8.80
2019-01-12T14:16:25.293Z,10.10
2019-01-12T14:18:59.024Z,10.23
2019-01-12T14:21:32.781Z,9.57
2019-01-12T14:24:06.572Z,10.70
2019-01-12T14:26:40.316Z,9.83
2019-01-12T14:29:14.063Z,10.20
2019-01-12T14:31:47.783Z,9.50
2019-01-12T14:34:21.629Z,9.97
2019-01-12T14:36:55.324Z,10.13
2019-01-12T14:39:29.701Z,8.90
2019-01-12T14:42:04.182Z,9.67
2019-01-12T14:44:37.908Z,9.23
2019-01-12T14:47:11.627Z,9.13
2019-01-12T14:49:45.405Z,10.23
2019-01-12T14:52:19.036Z,9.47
2019-01-12T14:54:52.665Z,9.57
2019-01-12T14:57:27.264Z,8.97
2019-01-12T15:00:01.131Z,9.63
2019-01-12T15:02:35.600Z,8.57
2019-01-12T15:05:09.420Z,8.73
2019-01-12T15:07:43.928Z,9.50
2019-01-12T15:10:18.441Z,9.10
2019-01-12T15:12:52.265Z,9.37
2019-01-12T15:15:25.976Z,8.53
2019-01-12T15:17:59.837Z,9.50
2019-01-12T15:20:33.625Z,9.03
2019-01-12T15:23:08.161Z,9.70
2019-01-12T15:25:42.591Z,9.87
2019-01-12T15:28:17.120Z,9.03
2019-01-12T15:30:50.884Z,9.30
2019-01-12T15:33:24.717Z,9.90
2019-01-12T15:35:58.485Z,9.07
2019-01-12T15:38:32.965Z,9.60
2019-01-12T15:41:06.739Z,9.77
2019-01-12T15:43:40.622Z,10.10
2019-01-12T15:46:14.302Z,9.60
2019-01-12T15:48:48.021Z,8.97
2019-01-12T15:51:21.776Z,9.63
2019-01-12T15:53:56.337Z,10.93
2019-01-12T15:56:30.936Z,10.50
2019-01-12T15:59:04.632Z,9.97
2019-01-12T16:01:38.452Z,10.53
2019-01-12T16:04:13.096Z,10.17
2019-01-12T16:06:47.633Z,10.70
2019-01-12T16:09:22.148Z,10.67
2019-01-12T16:11:55.893Z,11.00
2019-01-12T16:14:29.673Z,9.63
2019-01-12T16:17:03.378Z,9.87
2019-01-12T16:19:37.055Z,9.63
2019-01-12T16:22:10.923Z,9.03
2019-01-12T16:24:44.679Z,9.57
2019-01-12T16:34:55.062Z,8.17
2019-01-12T16:37:28.790Z,7.27
2019-01-12T16:40:02.529Z,6.30
2019-01-12T16:42:37.113Z,6.80
2019-01-12T16:58:56.825Z,9.80
2019-01-12T17:01:30.692Z,5.47
2019-01-12T17:04:04.457Z,4.90
2019-01-12T17:06:38.121Z,3.97
2019-01-12T17:09:11.936Z,4.30
2019-01-12T17:11:45.691Z,4.27
2019-01-12T17:14:19.364Z,4.53
2019-01-12T17:16:53.868Z,4.27
2019-01-12T17:19:27.622Z,4.17
2019-01-12T17:22:01.557Z,4.33
2019-01-12T17:24:35.022Z,4.20
2019-01-12T17:27:09.624Z,3.20
2019-01-12T17:29:44.144Z,3.73
2019-01-12T17:32:17.823Z,4.13
2019-01-12T17:34:52.301Z,3.63
2019-01-12T17:37:26.135Z,3.80
2019-01-12T17:39:59.869Z,4.03
2019-01-12T17:42:33.723Z,4.53
2019-01-12T17:45:09.113Z,5.27
2019-01-12T17:47:42.810Z,3.53
2019-01-12T17:50:18.491Z,4.27
2019-01-12T17:52:53.193Z,2.97
2019-01-12T17:55:26.857Z,4.13
2019-01-12T17:58:00.753Z,4.80
2019-01-12T18:00:34.412Z,3.90
2019-01-12T18:03:08.309Z,3.97
2019-01-12T18:05:41.977Z,3.97
2019-01-12T18:08:15.661Z,3.67
2019-01-12T18:10:49.261Z,3.57
2019-01-12T18:13:23.098Z,3.13
2019-01-12T18:15:57.009Z,3.77
2019-01-12T18:18:31.600Z,2.87
2019-01-12T18:21:05.312Z,3.50
2019-01-12T18:23:39.002Z,3.10
2019-01-12T18:26:12.776Z,2.70
2019-01-12T18:28:51.477Z,2.97
2019-01-12T18:31:20.370Z,3.10
2019-01-12T18:33:54.055Z,3.10
2019-01-12T18:36:27.920Z,3.00
2019-01-12T18:39:01.698Z,3.77
2019-01-12T18:41:36.270Z,3.23
2019-01-12T18:44:10.472Z,3.53
2019-01-12T18:46:44.350Z,2.93
2019-01-12T18:49:17.993Z,2.77
2019-01-12T18:51:52.067Z,3.00
2019-01-12T18:54:25.786Z,2.47
2019-01-12T18:56:59.430Z,2.40
2019-01-12T19:00:18.368Z,2.80
2019-01-12T19:02:51.415Z,2.80
2019-01-12T19:05:32.422Z,3.10
2019-01-12T19:08:31.894Z,2.43
2019-01-12T19:11:06.386Z,2.63
2019-01-12T19:14:07.950Z,2.63
2019-01-12T19:16:42.638Z,2.17
2019-01-12T19:22:56.670Z,2.37
2019-01-12T19:25:39.482Z,2.00
2019-01-12T19:28:22.142Z,2.17
2019-01-12T19:33:46.030Z,2.40
2019-01-12T19:36:19.777Z,1.57
2019-01-12T19:38:53.449Z,2.53
2019-01-12T19:41:27.258Z,2.40
2019-01-12T19:44:02.049Z,2.53
2019-01-12T19:46:35.798Z,2.83
2019-01-12T19:49:09.623Z,2.90
2019-01-12T19:51:44.133Z,2.37
2019-01-12T19:54:18.066Z,2.30
2019-01-12T19:56:51.728Z,2.30
2019-01-12T19:59:25.370Z,2.23
2019-01-12T20:01:59.843Z,2.33
2019-01-12T20:04:34.356Z,2.67
2019-01-12T20:07:08.117Z,2.57
2019-01-12T20:09:41.842Z,2.03
2019-01-12T20:12:16.508Z,2.67
2019-01-12T20:14:50.237Z,2.57
2019-01-12T20:17:23.953Z,2.30
2019-01-12T20:19:57.562Z,2.70
2019-01-12T20:22:31.144Z,2.30
2019-01-12T20:25:05.032Z,2.20
2019-01-12T20:27:39.633Z,3.07
2019-01-12T20:30:31.630Z,2.90
2019-01-12T20:33:32.484Z,2.20
2019-01-12T20:36:23.644Z,2.17
2019-01-12T20:38:59.575Z,2.37
2019-01-12T20:41:51.185Z,2.50
2019-01-12T20:47:44.992Z,3.37
2019-01-12T20:50:19.412Z,2.30
2019-01-12T20:52:58.794Z,2.07
2019-01-12T20:55:36.633Z,1.90
2019-01-12T20:58:30.696Z,2.17
2019-01-12T21:01:12.713Z,1.90
2019-01-12T21:07:08.496Z,3.00
2019-01-12T21:13:28.532Z,3.20
2019-01-12T21:16:02.220Z,2.47
2019-01-12T21:18:35.840Z,2.70
2019-01-12T21:21:10.459Z,2.97
2019-01-12T21:23:44.165Z,2.90
2019-01-12T21:26:17.884Z,2.50
2019-01-12T21:28:52.372Z,2.87
2019-01-12T21:31:26.105Z,2.53
2019-01-12T21:33:59.883Z,2.63
2019-01-12T21:36:33.520Z,2.60
2019-01-12T21:39:07.221Z,2.60
2019-01-12T21:41:41.652Z,2.40
2019-01-12T21:44:16.195Z,2.43
2019-01-12T21:46:49.923Z,2.73
2019-01-12T21:49:23.641Z,2.50
2019-01-12T21:51:57.508Z,2.37
2019-01-12T21:54:31.426Z,2.27
2019-01-12T21:57:05.138Z,2.23
2019-01-12T21:59:42.562Z,2.47
2019-01-12T22:02:12.755Z,2.37
2019-01-12T22:04:46.355Z,3.03
2019-01-12T22:07:20.104Z,2.60
2019-01-12T22:09:54.608Z,2.63
2019-01-12T22:12:28.421Z,2.70
2019-01-12T22:15:02.132Z,2.80
2019-01-12T22:17:35.984Z,2.80
2019-01-12T22:20:16.721Z,2.83
2019-01-12T22:22:50.329Z,2.67
2019-01-12T22:25:24.076Z,2.97
2019-01-12T22:27:57.704Z,2.40
2019-01-12T22:30:31.520Z,2.33
2019-01-12T22:33:05.163Z,2.60
2019-01-12T22:35:38.884Z,2.43
2019-01-12T22:38:12.664Z,2.23
2019-01-12T22:40:46.396Z,2.77
2019-01-12T22:43:20.280Z,2.43
2019-01-12T22:45:54.829Z,2.43
2019-01-12T22:48:28.584Z,2.50
2019-01-12T22:51:02.244Z,2.80
2019-01-12T22:53:35.839Z,2.63
2019-01-12T22:56:10.268Z,2.37
2019-01-12T22:58:43.924Z,2.73
2019-01-12T23:01:18.824Z,3.10
2019-01-12T23:03:52.448Z,2.70
2019-01-12T23:06:26.059Z,2.60
2019-01-12T23:08:59.611Z,3.00
2019-01-12T23:11:34.146Z,3.00
2019-01-12T23:14:08.625Z,2.70
2019-01-12T23:16:42.383Z,3.07
2019-01-12T23:19:16.148Z,3.40
2019-01-12T23:21:50.573Z,2.90
2019-01-12T23:24:24.291Z,2.90
2019-01-12T23:26:58.004Z,2.73
2019-01-12T23:29:31.620Z,3.00
2019-01-12T23:32:06.120Z,2.83
2019-01-12T23:34:39.779Z,3.23
2019-01-12T23:37:13.579Z,2.73
2019-01-12T23:39:48.024Z,3.00
2019-01-12T23:42:24.499Z,3.13
2019-01-12T23:44:58.152Z,3.00
2019-01-12T23:47:31.858Z,3.73
2019-01-12T23:50:06.502Z,2.97
2019-01-12T23:52:40.380Z,2.63
2019-01-12T23:55:14.032Z,2.80
2019-01-12T23:57:47.811Z,3.27
